createdAt,value
2023-04-20T00:00:11.876Z,63.20
2023-04-20T00:02:40.036Z,63.50
2023-04-20T00:05:08.337Z,63.40
2023-04-20T00:07:36.274Z,63.60
2023-04-20T00:10:04.630Z,63.50
2023-04-20T00:12:32.239Z,63.70
2023-04-20T00:14:59.911Z,63.20
2023-04-20T00:17:27.580Z,63.60
2023-04-20T00:19:55.160Z,63.70
2023-04-20T00:22:22.668Z,63.60
2023-04-20T00:24:50.181Z,63.30
2023-04-20T00:27:18.400Z,63.30
2023-04-20T00:29:45.901Z,63.30
2023-04-20T00:32:13.397Z,63.40
2023-04-20T00:34:41.185Z,63.20
2023-04-20T00:37:09.190Z,63.00
2023-04-20T00:39:36.827Z,63.30
2023-04-20T00:42:08.615Z,63.10
2023-04-20T00:44:36.504Z,62.90
2023-04-20T00:47:03.995Z,63.20
2023-04-20T00:49:32.156Z,62.70
2023-04-20T00:52:01.289Z,62.70
2023-04-20T00:54:30.935Z,62.80
2023-04-20T00:56:59.886Z,62.70
2023-04-20T00:59:27.482Z,62.60
2023-04-20T01:01:55.314Z,62.40
2023-04-20T01:04:23.050Z,62.30
2023-04-20T01:06:50.637Z,62.40
2023-04-20T01:09:18.364Z,62.40
2023-04-20T01:11:46.082Z,62.30
2023-04-20T01:14:13.601Z,62.20
2023-04-20T01:16:41.503Z,62.00
2023-04-20T01:19:09.093Z,62.40
2023-04-20T01:21:36.657Z,61.80
2023-04-20T01:24:04.443Z,61.70
2023-04-20T01:26:32.039Z,62.00
2023-04-20T01:28:59.683Z,61.80
2023-04-20T01:31:27.234Z,61.80
2023-04-20T01:33:54.742Z,61.80
2023-04-20T01:36:22.665Z,61.80
2023-04-20T01:38:50.339Z,61.90
2023-04-20T01:41:17.959Z,61.80
2023-04-20T01:43:45.546Z,61.70
2023-04-20T01:46:13.139Z,61.60
2023-04-20T01:48:40.788Z,61.70
2023-04-20T01:51:09.802Z,61.80
2023-04-20T01:53:37.398Z,61.50
2023-04-20T01:56:05.249Z,61.60
2023-04-20T01:58:32.856Z,61.40
2023-04-20T02:01:02.943Z,61.60
2023-04-20T02:03:30.714Z,61.40
2023-04-20T02:05:58.343Z,61.60
2023-04-20T02:08:26.049Z,61.50
2023-04-20T02:10:53.590Z,61.40
2023-04-20T02:13:21.738Z,61.50
2023-04-20T02:15:49.432Z,62.10
2023-04-20T02:18:17.051Z,61.50
2023-04-20T02:20:46.083Z,61.60
2023-04-20T02:23:13.672Z,61.50
2023-04-20T02:25:41.274Z,61.40
2023-04-20T02:28:08.898Z,61.70
2023-04-20T02:30:36.389Z,61.70
2023-04-20T02:33:03.999Z,61.60
2023-04-20T02:35:31.622Z,61.40
2023-04-20T02:37:59.209Z,61.30
2023-04-20T02:40:26.886Z,61.50
2023-04-20T02:42:54.595Z,61.50
2023-04-20T02:45:22.203Z,61.80
2023-04-20T02:47:49.751Z,61.50
2023-04-20T02:50:17.381Z,61.20
2023-04-20T02:52:44.958Z,61.70
2023-04-20T02:55:12.541Z,61.80
2023-04-20T02:57:40.165Z,61.70
2023-04-20T03:00:09.328Z,61.60
2023-04-20T03:02:37.857Z,61.70
2023-04-20T03:05:06.032Z,62.20
2023-04-20T03:07:33.566Z,61.90
2023-04-20T03:10:01.159Z,61.90
2023-04-20T03:12:28.648Z,62.10
2023-04-20T03:14:56.195Z,62.10
2023-04-20T03:17:23.788Z,63.00
2023-04-20T03:19:51.706Z,63.00
2023-04-20T03:22:21.829Z,63.00
2023-04-20T03:24:51.934Z,63.10
2023-04-20T03:27:21.277Z,63.20
2023-04-20T03:29:49.141Z,63.20
2023-04-20T03:32:16.742Z,63.30
2023-04-20T03:34:44.286Z,62.90
2023-04-20T03:37:11.866Z,63.20
2023-04-20T03:39:39.351Z,63.20
2023-04-20T03:42:06.858Z,63.20
2023-04-20T03:44:34.495Z,63.10
2023-04-20T03:47:02.017Z,63.30
2023-04-20T03:49:30.417Z,63.30
2023-04-20T03:52:00.933Z,63.20
2023-04-20T03:54:28.488Z,63.30
2023-04-20T03:56:56.124Z,63.20
2023-04-20T03:59:23.600Z,63.20
2023-04-20T04:01:52.147Z,63.20
2023-04-20T04:04:20.055Z,63.30
2023-04-20T04:06:47.719Z,63.20
2023-04-20T04:09:15.482Z,63.50
2023-04-20T04:11:43.243Z,63.20
2023-04-20T04:14:11.277Z,63.20
2023-04-20T04:16:38.820Z,63.40
2023-04-20T04:19:06.426Z,63.40
2023-04-20T04:21:35.268Z,63.50
2023-04-20T04:24:03.914Z,63.70
2023-04-20T04:26:32.109Z,63.70
2023-04-20T04:28:59.795Z,63.70
2023-04-20T04:31:27.842Z,63.50
2023-04-20T04:33:55.332Z,63.70
2023-04-20T04:36:24.475Z,63.70
2023-04-20T04:38:52.994Z,63.70
2023-04-20T04:41:20.609Z,64.00
2023-04-20T04:43:48.333Z,63.80
2023-04-20T04:46:16.005Z,64.00
2023-04-20T04:48:43.701Z,63.80
2023-04-20T04:51:11.237Z,64.00
2023-04-20T04:53:38.852Z,64.20
2023-04-20T04:56:07.135Z,64.20
2023-04-20T04:58:34.761Z,64.30
2023-04-20T05:01:02.392Z,64.40
2023-04-20T05:03:30.045Z,64.20
2023-04-20T05:05:57.574Z,64.30
2023-04-20T05:08:25.037Z,64.40
2023-04-20T05:10:52.654Z,64.50
2023-04-20T05:13:20.196Z,64.60
2023-04-20T05:15:47.895Z,64.80
2023-04-20T05:18:15.652Z,64.70
2023-04-20T05:20:43.456Z,64.90
2023-04-20T05:23:11.490Z,65.00
2023-04-20T05:25:39.279Z,65.00
2023-04-20T05:28:07.013Z,65.00
2023-04-20T05:30:34.496Z,65.40
2023-04-20T05:33:02.108Z,65.30
2023-04-20T05:35:29.719Z,65.40
2023-04-20T05:38:00.525Z,65.30
2023-04-20T05:40:28.053Z,65.40
2023-04-20T05:42:55.787Z,65.40
2023-04-20T05:45:23.441Z,65.70
2023-04-20T05:47:55.711Z,65.70
2023-04-20T05:50:24.909Z,65.60
2023-04-20T05:52:53.108Z,65.60
2023-04-20T05:55:22.851Z,65.70
2023-04-20T05:57:52.537Z,65.80
2023-04-20T06:00:20.735Z,65.90
2023-04-20T06:02:48.695Z,66.10
2023-04-20T06:05:17.661Z,66.20
2023-04-20T06:07:45.286Z,66.20
2023-04-20T06:10:13.024Z,66.40
2023-04-20T06:12:41.101Z,66.50
2023-04-20T06:15:11.157Z,66.30
2023-04-20T06:17:41.077Z,66.50
2023-04-20T06:20:12.268Z,66.50
2023-04-20T06:22:47.356Z,66.70
2023-04-20T06:25:16.029Z,66.70
2023-04-20T06:27:43.823Z,66.60
2023-04-20T06:30:12.071Z,66.80
2023-04-20T06:32:39.683Z,67.00
2023-04-20T06:35:07.915Z,67.20
2023-04-20T06:37:39.021Z,67.10
2023-04-20T06:40:10.511Z,67.10
2023-04-20T06:42:38.094Z,67.00
2023-04-20T06:45:06.966Z,67.20
2023-04-20T06:47:34.931Z,67.40
2023-04-20T06:50:05.070Z,67.20
2023-04-20T06:52:32.722Z,67.30
2023-04-20T06:55:00.722Z,67.40
2023-04-20T06:57:28.355Z,67.60
2023-04-20T06:59:55.949Z,67.80
2023-04-20T07:02:24.052Z,67.80
2023-04-20T07:04:51.928Z,68.00
2023-04-20T07:07:19.595Z,68.10
2023-04-20T07:09:47.129Z,68.40
2023-04-20T07:12:16.073Z,68.50
2023-04-20T07:14:43.601Z,68.60
2023-04-20T07:17:11.118Z,68.70
2023-04-20T07:19:38.668Z,68.80
2023-04-20T07:22:06.249Z,68.80
2023-04-20T07:24:33.799Z,68.90
2023-04-20T07:27:01.757Z,68.90
2023-04-20T07:29:29.266Z,69.10
2023-04-20T07:31:56.810Z,69.20
2023-04-20T07:34:24.314Z,69.20
2023-04-20T07:36:51.899Z,69.30
2023-04-20T07:39:19.598Z,69.50
2023-04-20T07:41:47.272Z,69.60
2023-04-20T07:44:14.806Z,69.70
2023-04-20T07:46:42.410Z,69.60
2023-04-20T07:49:09.950Z,69.80
2023-04-20T07:51:37.501Z,69.90
2023-04-20T07:54:06.121Z,70.00
2023-04-20T07:56:33.722Z,70.40
2023-04-20T07:59:01.279Z,69.80
2023-04-20T08:01:28.838Z,70.00
2023-04-20T08:03:56.576Z,70.00
2023-04-20T08:06:24.272Z,70.00
2023-04-20T08:08:57.706Z,70.20
2023-04-20T08:11:25.414Z,70.20
2023-04-20T08:13:53.032Z,70.30
2023-04-20T08:16:20.911Z,70.40
2023-04-20T08:18:48.573Z,70.40
2023-04-20T08:21:16.065Z,70.40
2023-04-20T08:23:43.876Z,70.60
2023-04-20T08:26:16.508Z,70.70
2023-04-20T08:28:45.207Z,70.70
2023-04-20T08:31:14.457Z,70.80
2023-04-20T08:33:42.586Z,70.80
2023-04-20T08:36:10.241Z,71.00
2023-04-20T08:38:37.771Z,70.80
2023-04-20T08:41:05.522Z,70.90
2023-04-20T08:43:33.350Z,71.10
2023-04-20T08:46:04.634Z,71.10
2023-04-20T08:48:36.741Z,71.20
2023-04-20T08:51:05.281Z,71.30
2023-04-20T08:53:33.782Z,71.50
2023-04-20T08:56:01.475Z,71.50
2023-04-20T08:58:32.679Z,71.50
2023-04-20T09:01:01.653Z,71.70
2023-04-20T09:03:38.131Z,71.70
2023-04-20T09:06:14.112Z,71.70
2023-04-20T09:08:45.369Z,71.60
2023-04-20T09:11:29.323Z,71.80
2023-04-20T09:14:20.487Z,71.90
2023-04-20T09:17:03.314Z,72.00
2023-04-20T09:19:33.586Z,72.30
2023-04-20T09:22:05.228Z,72.20
2023-04-20T09:25:23.002Z,72.10
2023-04-20T09:27:58.368Z,72.20
2023-04-20T09:30:27.050Z,72.20
2023-04-20T09:33:05.064Z,72.20
2023-04-20T09:35:32.681Z,72.40
2023-04-20T09:38:00.286Z,72.30
2023-04-20T09:40:27.969Z,72.60
2023-04-20T09:42:58.489Z,72.60
2023-04-20T09:45:26.550Z,72.60
2023-04-20T09:47:55.328Z,72.70
2023-04-20T09:50:31.816Z,72.70
2023-04-20T09:53:03.175Z,72.70
2023-04-20T09:55:32.332Z,72.80
2023-04-20T09:58:03.355Z,72.80
2023-04-20T10:00:31.167Z,73.00
2023-04-20T10:02:58.903Z,73.00
2023-04-20T10:05:36.953Z,73.10
2023-04-20T10:08:04.765Z,73.10
2023-04-20T10:10:50.673Z,73.10
2023-04-20T10:13:19.837Z,73.30
2023-04-20T10:15:47.581Z,73.30
2023-04-20T10:18:26.868Z,73.20
2023-04-20T10:21:09.779Z,72.40
2023-04-20T10:23:51.067Z,72.50
2023-04-20T10:26:18.941Z,72.50
2023-04-20T10:28:46.777Z,72.70
2023-04-20T10:31:15.920Z,72.80
2023-04-20T10:33:55.692Z,72.80
2023-04-20T10:36:25.579Z,73.00
2023-04-20T10:38:53.636Z,73.10
2023-04-20T10:41:21.464Z,73.20
2023-04-20T10:43:49.034Z,73.20
2023-04-20T10:46:21.893Z,73.40
2023-04-20T10:48:56.514Z,73.60
2023-04-20T10:51:24.995Z,73.50
2023-04-20T10:54:05.422Z,73.50
2023-04-20T10:56:52.062Z,73.80
2023-04-20T10:59:25.066Z,73.70
2023-04-20T11:01:52.953Z,73.80
2023-04-20T11:04:31.441Z,74.00
2023-04-20T11:07:07.501Z,74.10
2023-04-20T11:09:38.536Z,73.90
2023-04-20T11:12:09.323Z,74.50
2023-04-20T11:14:38.950Z,74.20
2023-04-20T11:17:07.225Z,74.20
2023-04-20T11:19:36.351Z,74.10
2023-04-20T11:22:06.714Z,74.20
2023-04-20T11:24:35.029Z,74.30
2023-04-20T11:27:05.038Z,74.20
2023-04-20T11:29:40.084Z,74.60
2023-04-20T11:32:10.202Z,74.70
2023-04-20T11:34:39.890Z,74.60
2023-04-20T11:37:10.497Z,74.80
2023-04-20T11:39:38.833Z,74.90
2023-04-20T11:42:07.066Z,75.00
2023-04-20T11:44:36.927Z,75.10
2023-04-20T11:47:04.858Z,75.20
2023-04-20T11:49:32.460Z,75.40
2023-04-20T11:52:00.350Z,75.60
2023-04-20T11:54:28.687Z,75.40
2023-04-20T11:56:56.836Z,75.70
2023-04-20T11:59:24.389Z,75.60
2023-04-20T12:01:52.561Z,75.50
2023-04-20T12:04:20.411Z,75.50
2023-04-20T12:06:48.563Z,75.60
2023-04-20T12:09:16.501Z,75.60
2023-04-20T12:11:46.754Z,75.50
2023-04-20T12:14:14.272Z,75.70
2023-04-20T12:16:41.887Z,75.80
2023-04-20T12:19:09.614Z,76.10
2023-04-20T12:21:37.258Z,76.00
2023-04-20T12:24:05.044Z,76.00
2023-04-20T12:26:40.879Z,76.00
2023-04-20T12:29:08.482Z,75.80
2023-04-20T12:31:36.719Z,76.40
2023-04-20T12:34:04.937Z,76.10
2023-04-20T12:36:32.841Z,76.20
2023-04-20T12:39:00.299Z,76.30
2023-04-20T12:41:28.293Z,76.30
2023-04-20T12:43:56.486Z,76.00
2023-04-20T12:46:23.999Z,75.90
2023-04-20T12:48:51.560Z,76.00
2023-04-20T12:51:19.120Z,75.80
2023-04-20T12:53:46.666Z,76.10
2023-04-20T12:56:15.488Z,76.00
2023-04-20T12:58:43.922Z,76.00
2023-04-20T13:01:12.001Z,76.10
2023-04-20T13:03:39.634Z,76.00
2023-04-20T13:06:07.763Z,76.10
2023-04-20T13:08:37.331Z,76.30
2023-04-20T13:11:04.988Z,76.30
2023-04-20T13:13:32.656Z,76.10
2023-04-20T13:16:00.296Z,76.00
2023-04-20T13:18:27.945Z,75.90
2023-04-20T13:20:55.680Z,76.00
2023-04-20T13:23:23.402Z,76.00
2023-04-20T13:25:51.957Z,76.00
2023-04-20T13:28:19.924Z,75.80
2023-04-20T13:30:48.098Z,76.00
2023-04-20T13:33:15.722Z,75.80
2023-04-20T13:35:43.511Z,75.90
2023-04-20T13:38:11.196Z,75.90
2023-04-20T13:40:38.806Z,76.10
2023-04-20T13:43:06.377Z,76.00
2023-04-20T13:45:34.226Z,76.10
2023-04-20T13:48:01.950Z,75.90
2023-04-20T13:50:29.565Z,76.00
2023-04-20T13:52:57.164Z,76.20
2023-04-20T13:55:26.934Z,76.30
2023-04-20T13:57:54.828Z,76.20
2023-04-20T14:00:23.880Z,76.20
2023-04-20T14:02:51.630Z,76.20
2023-04-20T14:05:19.193Z,76.40
2023-04-20T14:07:46.873Z,76.40
2023-04-20T14:10:14.432Z,76.30
2023-04-20T14:12:41.918Z,76.20
2023-04-20T14:15:10.008Z,76.10
2023-04-20T14:17:37.655Z,76.40
2023-04-20T14:20:06.069Z,76.30
2023-04-20T14:22:36.243Z,76.20
2023-04-20T14:25:07.109Z,76.20
2023-04-20T14:27:34.669Z,76.10
2023-04-20T14:30:03.233Z,76.10
2023-04-20T14:32:31.609Z,76.10
2023-04-20T14:34:59.285Z,76.10
2023-04-20T14:37:27.612Z,76.10
2023-04-20T14:39:55.205Z,75.80
2023-04-20T14:42:23.527Z,76.10
2023-04-20T14:44:51.541Z,76.00
2023-04-20T14:47:19.679Z,75.80
2023-04-20T14:49:47.360Z,75.80
2023-04-20T14:52:14.883Z,75.80
2023-04-20T14:54:42.375Z,75.90
2023-04-20T14:57:09.958Z,75.90
2023-04-20T14:59:37.432Z,75.80
2023-04-20T15:02:06.165Z,76.00
2023-04-20T15:04:33.964Z,75.80
2023-04-20T15:07:01.624Z,75.60
2023-04-20T15:09:29.249Z,75.80
2023-04-20T15:11:57.194Z,75.80
2023-04-20T15:14:24.952Z,75.70
2023-04-20T15:16:53.429Z,75.70
2023-04-20T15:19:22.951Z,75.80
2023-04-20T15:21:50.809Z,75.70
2023-04-20T15:24:18.562Z,75.60
2023-04-20T15:26:46.300Z,75.50
2023-04-20T15:29:13.796Z,75.30
2023-04-20T15:31:43.633Z,75.30
2023-04-20T15:34:11.566Z,75.20
2023-04-20T15:36:39.334Z,75.60
2023-04-20T15:39:07.484Z,75.10
2023-04-20T15:41:35.377Z,74.90
2023-04-20T15:44:02.973Z,75.00
2023-04-20T15:46:30.793Z,75.30
2023-04-20T15:48:58.465Z,74.80
2023-04-20T15:51:26.067Z,75.10
2023-04-20T15:53:53.577Z,74.60
2023-04-20T15:56:22.831Z,74.80
2023-04-20T15:58:51.260Z,74.80
2023-04-20T16:01:20.071Z,74.70
2023-04-20T16:03:49.964Z,74.40
2023-04-20T16:06:17.723Z,74.60
2023-04-20T16:08:45.645Z,74.60
2023-04-20T16:11:13.113Z,74.60
2023-04-20T16:13:40.646Z,74.50
2023-04-20T16:16:08.464Z,74.80
2023-04-20T16:18:38.838Z,74.60
2023-04-20T16:21:06.431Z,74.80
2023-04-20T16:23:33.974Z,74.70
2023-04-20T16:26:01.452Z,75.10
2023-04-20T16:28:29.308Z,74.60
2023-04-20T16:30:56.869Z,75.10
2023-04-20T16:33:24.847Z,74.70
2023-04-20T16:35:52.400Z,75.00
2023-04-20T16:38:20.453Z,74.90
2023-04-20T16:40:47.983Z,75.20
2023-04-20T16:43:15.512Z,74.30
2023-04-20T16:45:43.048Z,74.60
2023-04-20T16:48:10.735Z,74.60
2023-04-20T16:50:40.197Z,74.00
2023-04-20T16:53:09.646Z,74.30
2023-04-20T16:55:37.187Z,73.90
2023-04-20T16:58:04.862Z,74.30
2023-04-20T17:00:33.561Z,74.40
2023-04-20T17:03:01.683Z,74.20
2023-04-20T17:05:29.384Z,74.20
2023-04-20T17:07:56.915Z,74.20
2023-04-20T17:10:25.515Z,74.10
2023-04-20T17:12:53.006Z,73.90
2023-04-20T17:15:20.569Z,74.20
2023-04-20T17:17:48.215Z,74.40
2023-04-20T17:20:16.388Z,74.80
2023-04-20T17:22:43.974Z,74.20
2023-04-20T17:25:11.640Z,74.50
2023-04-20T17:27:39.128Z,74.50
2023-04-20T17:30:07.214Z,74.80
2023-04-20T17:32:34.836Z,74.30
2023-04-20T17:35:02.464Z,74.70
2023-04-20T17:37:30.067Z,72.60
2023-04-20T17:39:57.515Z,72.70
2023-04-20T17:42:25.030Z,73.40
2023-04-20T17:44:52.584Z,72.90
2023-04-20T17:47:20.141Z,73.00
2023-04-20T17:49:47.671Z,73.20
2023-04-20T17:52:19.632Z,73.20
2023-04-20T17:54:47.180Z,73.30
2023-04-20T17:57:14.955Z,73.00
2023-04-20T17:59:42.876Z,73.20
2023-04-20T18:02:12.029Z,73.40
2023-04-20T18:04:40.073Z,73.10
2023-04-20T18:07:07.928Z,73.00
2023-04-20T18:09:35.618Z,73.30
2023-04-20T18:12:03.257Z,73.90
2023-04-20T18:14:30.847Z,73.60
2023-04-20T18:16:58.425Z,73.60
2023-04-20T18:19:26.063Z,73.50
2023-04-20T18:21:53.788Z,73.80
2023-04-20T18:24:22.080Z,74.50
2023-04-20T18:26:49.777Z,73.60
2023-04-20T18:29:17.377Z,74.10
2023-04-20T18:31:46.717Z,73.40
2023-04-20T18:34:15.860Z,74.50
2023-04-20T18:36:43.545Z,74.40
2023-04-20T18:39:11.379Z,74.20
2023-04-20T18:41:39.106Z,74.30
2023-04-20T18:44:08.334Z,74.50
2023-04-20T18:46:36.033Z,74.90
2023-04-20T18:49:03.593Z,74.50
2023-04-20T18:51:32.362Z,74.20
2023-04-20T18:53:59.930Z,74.50
2023-04-20T18:56:27.519Z,74.50
2023-04-20T18:58:58.074Z,74.60
2023-04-20T19:01:25.984Z,74.40
2023-04-20T19:03:53.732Z,74.70
2023-04-20T19:06:21.371Z,74.70
2023-04-20T19:08:51.402Z,74.60
2023-04-20T19:11:18.929Z,74.60
2023-04-20T19:13:46.436Z,74.80
2023-04-20T19:16:14.080Z,74.50
2023-04-20T19:18:42.257Z,74.60
2023-04-20T19:21:15.836Z,74.50
2023-04-20T19:23:43.341Z,74.60
2023-04-20T19:26:10.986Z,74.30
2023-04-20T19:28:38.538Z,74.10
2023-04-20T19:31:08.209Z,74.20
2023-04-20T19:33:35.919Z,74.10
2023-04-20T19:36:06.418Z,74.20
2023-04-20T19:38:35.165Z,74.70
2023-04-20T19:41:02.757Z,74.10
2023-04-20T19:43:32.227Z,74.00
2023-04-20T19:46:00.233Z,74.10
2023-04-20T19:48:27.794Z,74.00
2023-04-20T19:50:59.482Z,73.90
2023-04-20T19:53:27.342Z,73.60
2023-04-20T19:55:54.928Z,73.70
2023-04-20T19:58:22.482Z,73.80
2023-04-20T20:00:50.067Z,73.80
2023-04-20T20:03:17.680Z,73.50
2023-04-20T20:05:45.828Z,73.10
2023-04-20T20:08:13.881Z,73.70
2023-04-20T20:10:41.717Z,73.70
2023-04-20T20:13:10.024Z,73.50
2023-04-20T20:15:38.048Z,73.70
2023-04-20T20:18:06.302Z,73.40
2023-04-20T20:20:33.973Z,74.00
2023-04-20T20:23:01.815Z,73.50
2023-04-20T20:25:29.614Z,73.30
2023-04-20T20:27:57.385Z,73.30
2023-04-20T20:30:25.244Z,73.60
2023-04-20T20:32:53.708Z,73.20
2023-04-20T20:35:21.629Z,73.10
2023-04-20T20:37:49.155Z,73.30
2023-04-20T20:40:17.123Z,73.30
2023-04-20T20:42:45.450Z,73.10
2023-04-20T20:45:13.888Z,73.10
2023-04-20T20:47:44.275Z,72.70
2023-04-20T20:50:14.903Z,72.70
2023-04-20T20:52:42.727Z,72.90
2023-04-20T20:55:10.669Z,72.80
2023-04-20T20:57:38.213Z,72.30
2023-04-20T21:00:10.637Z,72.50
2023-04-20T21:02:38.581Z,72.50
2023-04-20T21:05:06.924Z,72.40
2023-04-20T21:07:34.496Z,72.20
2023-04-20T21:10:02.303Z,72.30
2023-04-20T21:12:29.889Z,72.60
2023-04-20T21:14:57.469Z,72.70
2023-04-20T21:17:24.998Z,72.40
2023-04-20T21:19:52.554Z,72.30
2023-04-20T21:22:22.742Z,72.50
2023-04-20T21:24:50.353Z,72.70
2023-04-20T21:27:18.052Z,72.50
2023-04-20T21:29:45.718Z,72.30
2023-04-20T21:32:13.378Z,72.40
2023-04-20T21:34:40.900Z,72.10
2023-04-20T21:37:09.396Z,72.30
2023-04-20T21:39:36.983Z,72.20
2023-04-20T21:42:04.798Z,72.10
2023-04-20T21:44:32.543Z,72.00
2023-04-20T21:47:02.754Z,71.90
2023-04-20T21:49:30.420Z,72.30
2023-04-20T21:51:58.049Z,72.10
2023-04-20T21:54:25.751Z,72.00
2023-04-20T21:56:53.372Z,71.90
2023-04-20T21:59:21.054Z,72.00
2023-04-20T22:01:48.660Z,72.00
2023-04-20T22:04:17.118Z,72.10
2023-04-20T22:06:44.856Z,71.90
2023-04-20T22:09:12.838Z,72.00
2023-04-20T22:11:40.645Z,71.80
2023-04-20T22:14:08.252Z,71.80
2023-04-20T22:16:35.767Z,71.80
2023-04-20T22:19:07.510Z,71.70
2023-04-20T22:21:35.288Z,71.60
2023-04-20T22:24:02.875Z,71.60
2023-04-20T22:26:30.464Z,71.60
2023-04-20T22:28:58.013Z,71.50
2023-04-20T22:31:25.629Z,71.40
2023-04-20T22:33:53.234Z,71.70
2023-04-20T22:36:21.096Z,71.80
2023-04-20T22:38:48.708Z,71.80
2023-04-20T22:41:17.451Z,71.70
2023-04-20T22:43:45.467Z,71.70
2023-04-20T22:46:13.053Z,71.60
2023-04-20T22:48:41.918Z,71.80
2023-04-20T22:51:09.460Z,71.80
2023-04-20T22:53:37.052Z,71.50
2023-04-20T22:56:08.380Z,71.80
2023-04-20T22:58:36.157Z,71.70
2023-04-20T23:01:03.831Z,71.70
2023-04-20T23:03:31.644Z,71.70
2023-04-20T23:05:59.557Z,71.80
2023-04-20T23:08:28.564Z,71.80
2023-04-20T23:10:56.404Z,71.70
2023-04-20T23:13:26.588Z,71.80
2023-04-20T23:15:54.370Z,71.70
2023-04-20T23:18:22.065Z,71.50
2023-04-20T23:20:49.815Z,71.50
2023-04-20T23:23:17.455Z,71.80
2023-04-20T23:25:45.089Z,71.70
2023-04-20T23:28:12.692Z,71.70
2023-04-20T23:30:40.274Z,71.60
2023-04-20T23:33:07.942Z,71.60
2023-04-20T23:35:36.639Z,71.50
2023-04-20T23:38:04.645Z,71.70
2023-04-20T23:40:32.194Z,71.60
2023-04-20T23:42:59.747Z,70.80
2023-04-20T23:45:27.439Z,71.40
2023-04-20T23:47:55.103Z,71.40
2023-04-20T23:50:22.700Z,71.60
2023-04-20T23:52:50.342Z,71.40
2023-04-20T23:55:17.969Z,71.50
2023-04-20T23:57:47.488Z,71.10
